sensor_id;sensor_type;location;lat;lon;timestamp;temperature;humidity
45837;DHT22;31548;51.420;-0.040;2024-01-27T00:00:00;5.20;99.90
45837;DHT22;31548;51.420;-0.040;2024-01-27T00:02:35;5.20;99.90
45837;DHT22;31548;51.420;-0.040;2024-01-27T00:05:03;5.20;99.90
45837;DHT22;31548;51.420;-0.040;2024-01-27T00:07:31;5.20;99.90
45837;DHT22;31548;51.420;-0.040;2024-01-27T00:09:59;5.20;99.90
45837;DHT22;31548;51.420;-0.040;2024-01-27T00:12:37;5.20;99.90
45837;DHT22;31548;51.420;-0.040;2024-01-27T00:15:07;5.10;99.90
45837;DHT22;31548;51.420;-0.040;2024-01-27T00:17:35;5.20;99.90
45837;DHT22;31548;51.420;-0.040;2024-01-27T00:20:04;5.10;99.90
45837;DHT22;31548;51.420;-0.040;2024-01-27T00:22:32;5.00;99.90
45837;DHT22;31548;51.420;-0.040;2024-01-27T00:25:00;5.00;99.90
45837;DHT22;31548;51.420;-0.040;2024-01-27T00:27:28;4.90;99.90
45837;DHT22;31548;51.420;-0.040;2024-01-27T00:29:55;5.00;99.90
45837;DHT22;31548;51.420;-0.040;2024-01-27T00:32:23;4.90;99.90
45837;DHT22;31548;51.420;-0.040;2024-01-27T00:34:51;4.80;99.90
45837;DHT22;31548;51.420;-0.040;2024-01-27T00:37:19;4.80;99.90
45837;DHT22;31548;51.420;-0.040;2024-01-27T00:39:47;4.80;99.90
45837;DHT22;31548;51.420;-0.040;2024-01-27T00:42:14;4.80;99.90
45837;DHT22;31548;51.420;-0.040;2024-01-27T00:44:42;4.80;99.90
45837;DHT22;31548;51.420;-0.040;2024-01-27T00:47:10;4.70;99.90
45837;DHT22;31548;51.420;-0.040;2024-01-27T00:49:38;4.70;99.90
45837;DHT22;31548;51.420;-0.040;2024-01-27T00:52:06;4.70;99.90
45837;DHT22;31548;51.420;-0.040;2024-01-27T00:54:33;4.70;99.90
45837;DHT22;31548;51.420;-0.040;2024-01-27T00:57:01;4.70;99.90
45837;DHT22;31548;51.420;-0.040;2024-01-27T00:59:29;4.60;99.90
45837;DHT22;31548;51.420;-0.040;2024-01-27T01:01:57;4.60;99.90
45837;DHT22;31548;51.420;-0.040;2024-01-27T01:04:24;4.60;99.90
45837;DHT22;31548;51.420;-0.040;2024-01-27T01:06:52;4.60;99.90
45837;DHT22;31548;51.420;-0.040;2024-01-27T01:09:20;4.50;99.90
45837;DHT22;31548;51.420;-0.040;2024-01-27T01:11:48;4.50;99.90
45837;DHT22;31548;51.420;-0.040;2024-01-27T01:14:16;4.50;99.90
45837;DHT22;31548;51.420;-0.040;2024-01-27T01:16:44;4.50;99.90
45837;DHT22;31548;51.420;-0.040;2024-01-27T01:19:11;4.50;99.90
45837;DHT22;31548;51.420;-0.040;2024-01-27T01:21:39;4.50;99.90
45837;DHT22;31548;51.420;-0.040;2024-01-27T01:24:07;4.50;99.90
45837;DHT22;31548;51.420;-0.040;2024-01-27T01:26:35;4.40;99.90
45837;DHT22;31548;51.420;-0.040;2024-01-27T01:29:03;4.40;99.90
45837;DHT22;31548;51.420;-0.040;2024-01-27T01:31:30;4.40;99.90
45837;DHT22;31548;51.420;-0.040;2024-01-27T01:33:58;4.40;99.90
45837;DHT22;31548;51.420;-0.040;2024-01-27T01:36:26;4.30;99.90
45837;DHT22;31548;51.420;-0.040;2024-01-27T01:38:54;4.30;99.90
45837;DHT22;31548;51.420;-0.040;2024-01-27T01:41:22;4.30;99.90
45837;DHT22;31548;51.420;-0.040;2024-01-27T01:43:49;4.20;99.90
45837;DHT22;31548;51.420;-0.040;2024-01-27T01:46:18;4.10;99.90
45837;DHT22;31548;51.420;-0.040;2024-01-27T01:48:45;4.10;99.90
45837;DHT22;31548;51.420;-0.040;2024-01-27T01:51:13;4.10;99.90
45837;DHT22;31548;51.420;-0.040;2024-01-27T01:53:42;4.10;99.90
45837;DHT22;31548;51.420;-0.040;2024-01-27T01:56:10;4.10;99.90
45837;DHT22;31548;51.420;-0.040;2024-01-27T01:58:37;4.10;99.90
45837;DHT22;31548;51.420;-0.040;2024-01-27T02:01:05;4.00;99.90
45837;DHT22;31548;51.420;-0.040;2024-01-27T02:03:33;4.00;99.90
45837;DHT22;31548;51.420;-0.040;2024-01-27T02:06:01;3.90;99.90
45837;DHT22;31548;51.420;-0.040;2024-01-27T02:08:29;3.90;99.90
45837;DHT22;31548;51.420;-0.040;2024-01-27T02:10:57;3.80;99.90
45837;DHT22;31548;51.420;-0.040;2024-01-27T02:13:25;3.80;99.90
45837;DHT22;31548;51.420;-0.040;2024-01-27T02:15:54;3.70;99.90
45837;DHT22;31548;51.420;-0.040;2024-01-27T02:18:22;3.70;99.90
45837;DHT22;31548;51.420;-0.040;2024-01-27T02:20:50;3.70;99.90
45837;DHT22;31548;51.420;-0.040;2024-01-27T02:23:18;3.70;99.90
45837;DHT22;31548;51.420;-0.040;2024-01-27T02:25:46;3.60;99.90
45837;DHT22;31548;51.420;-0.040;2024-01-27T02:28:14;3.60;99.90
45837;DHT22;31548;51.420;-0.040;2024-01-27T02:30:41;3.60;99.90
45837;DHT22;31548;51.420;-0.040;2024-01-27T02:33:09;3.50;99.90
45837;DHT22;31548;51.420;-0.040;2024-01-27T02:35:37;3.50;99.90
45837;DHT22;31548;51.420;-0.040;2024-01-27T02:38:05;3.50;99.90
45837;DHT22;31548;51.420;-0.040;2024-01-27T02:40:33;3.40;99.90
45837;DHT22;31548;51.420;-0.040;2024-01-27T02:43:00;3.40;99.90
45837;DHT22;31548;51.420;-0.040;2024-01-27T02:45:28;3.40;99.90
45837;DHT22;31548;51.420;-0.040;2024-01-27T02:47:56;3.30;99.90
45837;DHT22;31548;51.420;-0.040;2024-01-27T02:50:24;3.30;99.90
45837;DHT22;31548;51.420;-0.040;2024-01-27T02:52:52;3.30;99.90
45837;DHT22;31548;51.420;-0.040;2024-01-27T02:55:20;3.20;99.90
45837;DHT22;31548;51.420;-0.040;2024-01-27T02:57:47;3.20;99.90
45837;DHT22;31548;51.420;-0.040;2024-01-27T03:00:16;3.20;99.90
45837;DHT22;31548;51.420;-0.040;2024-01-27T03:02:45;3.20;99.90
45837;DHT22;31548;51.420;-0.040;2024-01-27T03:05:13;3.20;99.90
45837;DHT22;31548;51.420;-0.040;2024-01-27T03:07:41;3.20;99.90
45837;DHT22;31548;51.420;-0.040;2024-01-27T03:10:09;3.10;99.90
45837;DHT22;31548;51.420;-0.040;2024-01-27T03:12:38;3.10;99.90
45837;DHT22;31548;51.420;-0.040;2024-01-27T03:15:06;3.10;99.90
45837;DHT22;31548;51.420;-0.040;2024-01-27T03:17:34;3.00;99.90
45837;DHT22;31548;51.420;-0.040;2024-01-27T03:20:02;3.00;99.90
45837;DHT22;31548;51.420;-0.040;2024-01-27T03:22:30;3.00;99.90
45837;DHT22;31548;51.420;-0.040;2024-01-27T03:24:58;2.90;99.90
45837;DHT22;31548;51.420;-0.040;2024-01-27T03:27:26;2.90;99.90
45837;DHT22;31548;51.420;-0.040;2024-01-27T03:29:55;2.90;99.90
45837;DHT22;31548;51.420;-0.040;2024-01-27T03:32:23;2.80;99.90
45837;DHT22;31548;51.420;-0.040;2024-01-27T03:34:50;2.80;99.90
45837;DHT22;31548;51.420;-0.040;2024-01-27T03:37:21;2.80;99.90
45837;DHT22;31548;51.420;-0.040;2024-01-27T03:39:48;2.80;99.90
45837;DHT22;31548;51.420;-0.040;2024-01-27T03:42:16;2.80;99.90
45837;DHT22;31548;51.420;-0.040;2024-01-27T03:44:44;2.80;99.90
45837;DHT22;31548;51.420;-0.040;2024-01-27T03:47:13;2.70;99.90
45837;DHT22;31548;51.420;-0.040;2024-01-27T03:49:41;2.70;99.90
45837;DHT22;31548;51.420;-0.040;2024-01-27T03:52:10;2.70;99.90
45837;DHT22;31548;51.420;-0.040;2024-01-27T03:54:38;2.70;99.90
45837;DHT22;31548;51.420;-0.040;2024-01-27T03:57:06;2.70;99.90
45837;DHT22;31548;51.420;-0.040;2024-01-27T03:59:34;2.70;99.90
45837;DHT22;31548;51.420;-0.040;2024-01-27T04:02:02;2.70;99.90
45837;DHT22;31548;51.420;-0.040;2024-01-27T04:04:32;2.70;99.90
45837;DHT22;31548;51.420;-0.040;2024-01-27T04:07:00;2.80;99.90
45837;DHT22;31548;51.420;-0.040;2024-01-27T04:09:29;2.80;99.90
45837;DHT22;31548;51.420;-0.040;2024-01-27T04:11:57;2.70;99.90
45837;DHT22;31548;51.420;-0.040;2024-01-27T04:14:25;2.70;99.90
45837;DHT22;31548;51.420;-0.040;2024-01-27T04:16:53;2.70;99.90
45837;DHT22;31548;51.420;-0.040;2024-01-27T04:19:21;2.70;99.90
45837;DHT22;31548;51.420;-0.040;2024-01-27T04:21:49;2.60;99.90
45837;DHT22;31548;51.420;-0.040;2024-01-27T04:24:17;2.60;99.90
45837;DHT22;31548;51.420;-0.040;2024-01-27T04:26:45;2.60;99.90
45837;DHT22;31548;51.420;-0.040;2024-01-27T04:29:13;2.60;99.90
45837;DHT22;31548;51.420;-0.040;2024-01-27T04:31:42;2.60;99.90
45837;DHT22;31548;51.420;-0.040;2024-01-27T04:34:10;2.50;99.90
45837;DHT22;31548;51.420;-0.040;2024-01-27T04:36:38;2.50;99.90
45837;DHT22;31548;51.420;-0.040;2024-01-27T04:39:06;2.40;99.90
45837;DHT22;31548;51.420;-0.040;2024-01-27T04:41:34;2.50;99.90
45837;DHT22;31548;51.420;-0.040;2024-01-27T04:44:02;2.40;99.90
45837;DHT22;31548;51.420;-0.040;2024-01-27T04:46:30;2.30;99.90
45837;DHT22;31548;51.420;-0.040;2024-01-27T04:48:58;2.30;99.90
45837;DHT22;31548;51.420;-0.040;2024-01-27T04:51:26;2.30;99.90
45837;DHT22;31548;51.420;-0.040;2024-01-27T04:53:54;2.30;99.90
45837;DHT22;31548;51.420;-0.040;2024-01-27T04:56:22;2.30;99.90
45837;DHT22;31548;51.420;-0.040;2024-01-27T04:58:49;2.30;99.90
45837;DHT22;31548;51.420;-0.040;2024-01-27T05:01:17;2.20;99.90
45837;DHT22;31548;51.420;-0.040;2024-01-27T05:03:45;2.20;99.90
45837;DHT22;31548;51.420;-0.040;2024-01-27T05:06:14;2.10;99.90
45837;DHT22;31548;51.420;-0.040;2024-01-27T05:08:41;2.10;99.90
45837;DHT22;31548;51.420;-0.040;2024-01-27T05:11:09;2.10;99.90
45837;DHT22;31548;51.420;-0.040;2024-01-27T05:13:39;2.10;99.90
45837;DHT22;31548;51.420;-0.040;2024-01-27T05:16:07;2.10;99.90
45837;DHT22;31548;51.420;-0.040;2024-01-27T05:18:35;2.10;99.90
45837;DHT22;31548;51.420;-0.040;2024-01-27T05:21:03;2.10;99.90
45837;DHT22;31548;51.420;-0.040;2024-01-27T05:23:32;2.00;99.90
45837;DHT22;31548;51.420;-0.040;2024-01-27T05:25:59;2.00;99.90
45837;DHT22;31548;51.420;-0.040;2024-01-27T05:28:27;2.00;99.90
45837;DHT22;31548;51.420;-0.040;2024-01-27T05:30:55;1.90;99.90
45837;DHT22;31548;51.420;-0.040;2024-01-27T05:33:22;2.00;99.90
45837;DHT22;31548;51.420;-0.040;2024-01-27T05:35:50;2.00;99.90
45837;DHT22;31548;51.420;-0.040;2024-01-27T05:38:17;1.90;99.90
45837;DHT22;31548;51.420;-0.040;2024-01-27T05:40:45;1.90;99.90
45837;DHT22;31548;51.420;-0.040;2024-01-27T05:43:12;1.90;99.90
45837;DHT22;31548;51.420;-0.040;2024-01-27T05:45:40;1.90;99.90
45837;DHT22;31548;51.420;-0.040;2024-01-27T05:48:07;1.80;99.90
45837;DHT22;31548;51.420;-0.040;2024-01-27T05:50:35;1.80;99.90
45837;DHT22;31548;51.420;-0.040;2024-01-27T05:53:03;1.80;99.90
45837;DHT22;31548;51.420;-0.040;2024-01-27T05:55:30;1.80;99.90
45837;DHT22;31548;51.420;-0.040;2024-01-27T05:57:58;1.80;99.90
45837;DHT22;31548;51.420;-0.040;2024-01-27T06:00:25;1.70;99.90
45837;DHT22;31548;51.420;-0.040;2024-01-27T06:02:53;1.80;99.90
45837;DHT22;31548;51.420;-0.040;2024-01-27T06:05:22;1.70;99.90
45837;DHT22;31548;51.420;-0.040;2024-01-27T06:07:49;1.70;99.90
45837;DHT22;31548;51.420;-0.040;2024-01-27T06:10:17;1.70;99.90
45837;DHT22;31548;51.420;-0.040;2024-01-27T06:12:45;1.70;99.90
45837;DHT22;31548;51.420;-0.040;2024-01-27T06:15:13;1.70;99.90
45837;DHT22;31548;51.420;-0.040;2024-01-27T06:17:42;1.70;99.90
45837;DHT22;31548;51.420;-0.040;2024-01-27T06:20:11;1.70;99.90
45837;DHT22;31548;51.420;-0.040;2024-01-27T06:22:38;1.70;99.90
45837;DHT22;31548;51.420;-0.040;2024-01-27T06:25:08;1.70;99.90
45837;DHT22;31548;51.420;-0.040;2024-01-27T06:27:36;1.70;99.90
45837;DHT22;31548;51.420;-0.040;2024-01-27T06:30:05;1.70;99.90
45837;DHT22;31548;51.420;-0.040;2024-01-27T06:32:33;1.70;99.90
45837;DHT22;31548;51.420;-0.040;2024-01-27T06:35:01;1.70;99.90
45837;DHT22;31548;51.420;-0.040;2024-01-27T06:37:28;1.60;99.90
45837;DHT22;31548;51.420;-0.040;2024-01-27T06:39:56;1.60;99.90
45837;DHT22;31548;51.420;-0.040;2024-01-27T06:42:24;1.70;99.90
45837;DHT22;31548;51.420;-0.040;2024-01-27T06:44:51;1.60;99.90
45837;DHT22;31548;51.420;-0.040;2024-01-27T06:47:19;1.60;99.90
45837;DHT22;31548;51.420;-0.040;2024-01-27T06:49:47;1.60;99.90
45837;DHT22;31548;51.420;-0.040;2024-01-27T06:52:15;1.60;99.90
45837;DHT22;31548;51.420;-0.040;2024-01-27T06:54:42;1.50;99.90
45837;DHT22;31548;51.420;-0.040;2024-01-27T06:57:21;1.60;99.90
45837;DHT22;31548;51.420;-0.040;2024-01-27T06:59:50;1.50;99.90
45837;DHT22;31548;51.420;-0.040;2024-01-27T07:02:24;1.60;99.90
45837;DHT22;31548;51.420;-0.040;2024-01-27T07:04:52;1.60;99.90
45837;DHT22;31548;51.420;-0.040;2024-01-27T07:07:26;1.60;99.90
45837;DHT22;31548;51.420;-0.040;2024-01-27T07:09:55;1.60;99.90
45837;DHT22;31548;51.420;-0.040;2024-01-27T07:12:22;1.50;99.90
45837;DHT22;31548;51.420;-0.040;2024-01-27T07:14:50;1.50;99.90
45837;DHT22;31548;51.420;-0.040;2024-01-27T07:17:22;1.50;99.90
45837;DHT22;31548;51.420;-0.040;2024-01-27T07:19:50;1.50;99.90
45837;DHT22;31548;51.420;-0.040;2024-01-27T07:22:18;1.50;99.90
45837;DHT22;31548;51.420;-0.040;2024-01-27T07:24:45;1.50;99.90
45837;DHT22;31548;51.420;-0.040;2024-01-27T07:27:13;1.40;99.90
45837;DHT22;31548;51.420;-0.040;2024-01-27T07:29:44;1.40;99.90
45837;DHT22;31548;51.420;-0.040;2024-01-27T07:32:12;1.40;99.90
45837;DHT22;31548;51.420;-0.040;2024-01-27T07:34:43;1.40;99.90
45837;DHT22;31548;51.420;-0.040;2024-01-27T07:37:11;1.50;99.90
45837;DHT22;31548;51.420;-0.040;2024-01-27T07:39:39;1.40;99.90
45837;DHT22;31548;51.420;-0.040;2024-01-27T07:42:07;1.40;99.90
45837;DHT22;31548;51.420;-0.040;2024-01-27T07:44:35;1.50;99.90
45837;DHT22;31548;51.420;-0.040;2024-01-27T07:47:02;1.50;99.90
45837;DHT22;31548;51.420;-0.040;2024-01-27T07:49:31;1.50;99.90
45837;DHT22;31548;51.420;-0.040;2024-01-27T07:51:58;1.50;99.90
45837;DHT22;31548;51.420;-0.040;2024-01-27T07:54:26;1.50;99.90
45837;DHT22;31548;51.420;-0.040;2024-01-27T07:56:54;1.50;99.90
45837;DHT22;31548;51.420;-0.040;2024-01-27T07:59:22;1.50;99.90
45837;DHT22;31548;51.420;-0.040;2024-01-27T08:01:52;1.60;99.90
45837;DHT22;31548;51.420;-0.040;2024-01-27T08:04:20;1.60;99.90
45837;DHT22;31548;51.420;-0.040;2024-01-27T08:06:50;1.60;99.90
45837;DHT22;31548;51.420;-0.040;2024-01-27T08:09:18;1.60;99.90
45837;DHT22;31548;51.420;-0.040;2024-01-27T08:11:46;1.60;99.90
45837;DHT22;31548;51.420;-0.040;2024-01-27T08:14:19;1.70;99.90
45837;DHT22;31548;51.420;-0.040;2024-01-27T08:16:47;1.70;99.90
45837;DHT22;31548;51.420;-0.040;2024-01-27T08:19:18;1.70;99.90
45837;DHT22;31548;51.420;-0.040;2024-01-27T08:21:49;1.70;99.90
45837;DHT22;31548;51.420;-0.040;2024-01-27T08:24:17;1.80;99.90
45837;DHT22;31548;51.420;-0.040;2024-01-27T08:26:44;1.80;99.90
45837;DHT22;31548;51.420;-0.040;2024-01-27T08:29:14;1.80;99.90
45837;DHT22;31548;51.420;-0.040;2024-01-27T08:31:41;1.90;99.90
45837;DHT22;31548;51.420;-0.040;2024-01-27T08:34:09;2.00;99.90
45837;DHT22;31548;51.420;-0.040;2024-01-27T08:36:40;2.10;99.90
45837;DHT22;31548;51.420;-0.040;2024-01-27T08:39:08;2.10;99.90
45837;DHT22;31548;51.420;-0.040;2024-01-27T08:41:36;2.20;99.90
45837;DHT22;31548;51.420;-0.040;2024-01-27T08:44:03;2.30;99.90
45837;DHT22;31548;51.420;-0.040;2024-01-27T08:46:31;2.30;99.90
45837;DHT22;31548;51.420;-0.040;2024-01-27T08:48:59;2.40;99.90
45837;DHT22;31548;51.420;-0.040;2024-01-27T08:51:26;2.50;99.90
45837;DHT22;31548;51.420;-0.040;2024-01-27T08:53:54;2.60;99.90
45837;DHT22;31548;51.420;-0.040;2024-01-27T08:56:21;2.60;99.90
45837;DHT22;31548;51.420;-0.040;2024-01-27T08:58:49;2.70;99.90
45837;DHT22;31548;51.420;-0.040;2024-01-27T09:01:17;2.80;99.90
45837;DHT22;31548;51.420;-0.040;2024-01-27T09:03:44;2.90;99.90
45837;DHT22;31548;51.420;-0.040;2024-01-27T09:06:12;2.90;99.90
45837;DHT22;31548;51.420;-0.040;2024-01-27T09:08:40;3.00;99.90
45837;DHT22;31548;51.420;-0.040;2024-01-27T09:11:08;3.10;99.90
45837;DHT22;31548;51.420;-0.040;2024-01-27T09:13:36;3.20;99.90
45837;DHT22;31548;51.420;-0.040;2024-01-27T09:16:04;3.20;99.90
45837;DHT22;31548;51.420;-0.040;2024-01-27T09:18:31;3.40;99.90
45837;DHT22;31548;51.420;-0.040;2024-01-27T09:20:59;3.40;99.90
45837;DHT22;31548;51.420;-0.040;2024-01-27T09:23:27;3.50;99.90
45837;DHT22;31548;51.420;-0.040;2024-01-27T09:25:55;3.60;99.90
45837;DHT22;31548;51.420;-0.040;2024-01-27T09:28:22;3.60;99.90
45837;DHT22;31548;51.420;-0.040;2024-01-27T09:30:51;3.70;99.90
45837;DHT22;31548;51.420;-0.040;2024-01-27T09:33:19;3.80;99.90
45837;DHT22;31548;51.420;-0.040;2024-01-27T09:35:50;3.90;99.90
45837;DHT22;31548;51.420;-0.040;2024-01-27T09:38:18;4.00;99.90
45837;DHT22;31548;51.420;-0.040;2024-01-27T09:40:46;4.00;99.90
45837;DHT22;31548;51.420;-0.040;2024-01-27T09:43:14;4.10;99.90
45837;DHT22;31548;51.420;-0.040;2024-01-27T09:45:42;4.20;99.90
45837;DHT22;31548;51.420;-0.040;2024-01-27T09:48:10;4.30;99.90
45837;DHT22;31548;51.420;-0.040;2024-01-27T09:50:41;4.30;99.90
45837;DHT22;31548;51.420;-0.040;2024-01-27T09:53:08;4.40;99.90
45837;DHT22;31548;51.420;-0.040;2024-01-27T09:55:37;4.50;99.90
45837;DHT22;31548;51.420;-0.040;2024-01-27T09:58:05;4.60;99.90
45837;DHT22;31548;51.420;-0.040;2024-01-27T10:00:35;4.60;99.90
45837;DHT22;31548;51.420;-0.040;2024-01-27T10:03:04;4.80;99.90
45837;DHT22;31548;51.420;-0.040;2024-01-27T10:05:32;4.80;99.90
45837;DHT22;31548;51.420;-0.040;2024-01-27T10:08:01;4.90;99.90
45837;DHT22;31548;51.420;-0.040;2024-01-27T10:10:28;5.00;99.90
45837;DHT22;31548;51.420;-0.040;2024-01-27T10:12:58;5.10;99.90
45837;DHT22;31548;51.420;-0.040;2024-01-27T10:15:27;5.20;99.90
45837;DHT22;31548;51.420;-0.040;2024-01-27T10:18:05;5.20;99.90
45837;DHT22;31548;51.420;-0.040;2024-01-27T10:20:34;5.30;99.90
45837;DHT22;31548;51.420;-0.040;2024-01-27T10:23:11;5.40;99.90
45837;DHT22;31548;51.420;-0.040;2024-01-27T10:25:39;5.50;99.90
45837;DHT22;31548;51.420;-0.040;2024-01-27T10:28:07;5.60;99.90
45837;DHT22;31548;51.420;-0.040;2024-01-27T10:30:38;5.70;99.90
45837;DHT22;31548;51.420;-0.040;2024-01-27T10:33:08;5.80;99.90
45837;DHT22;31548;51.420;-0.040;2024-01-27T10:35:43;5.90;99.90
45837;DHT22;31548;51.420;-0.040;2024-01-27T10:38:10;6.00;99.90
45837;DHT22;31548;51.420;-0.040;2024-01-27T10:40:38;6.10;99.90
45837;DHT22;31548;51.420;-0.040;2024-01-27T10:43:07;6.20;99.90
45837;DHT22;31548;51.420;-0.040;2024-01-27T10:45:37;6.30;99.90
45837;DHT22;31548;51.420;-0.040;2024-01-27T10:48:06;6.40;99.90
45837;DHT22;31548;51.420;-0.040;2024-01-27T10:50:37;6.50;99.90
45837;DHT22;31548;51.420;-0.040;2024-01-27T10:53:23;6.60;99.90
45837;DHT22;31548;51.420;-0.040;2024-01-27T10:55:58;6.70;99.90
45837;DHT22;31548;51.420;-0.040;2024-01-27T10:58:26;6.80;99.90
45837;DHT22;31548;51.420;-0.040;2024-01-27T11:00:56;6.80;99.90
45837;DHT22;31548;51.420;-0.040;2024-01-27T11:03:24;6.90;99.90
45837;DHT22;31548;51.420;-0.040;2024-01-27T11:05:54;7.00;99.90
45837;DHT22;31548;51.420;-0.040;2024-01-27T11:08:23;7.00;99.90
45837;DHT22;31548;51.420;-0.040;2024-01-27T11:10:56;7.10;99.90
45837;DHT22;31548;51.420;-0.040;2024-01-27T11:13:24;7.20;99.90
45837;DHT22;31548;51.420;-0.040;2024-01-27T11:15:54;7.20;99.90
45837;DHT22;31548;51.420;-0.040;2024-01-27T11:18:21;7.30;99.90
45837;DHT22;31548;51.420;-0.040;2024-01-27T11:20:53;7.30;99.90
45837;DHT22;31548;51.420;-0.040;2024-01-27T11:23:31;7.40;99.90
45837;DHT22;31548;51.420;-0.040;2024-01-27T11:26:05;7.40;99.90
45837;DHT22;31548;51.420;-0.040;2024-01-27T11:28:33;7.50;99.90
45837;DHT22;31548;51.420;-0.040;2024-01-27T11:31:07;7.50;99.90
45837;DHT22;31548;51.420;-0.040;2024-01-27T11:33:45;7.50;99.90
45837;DHT22;31548;51.420;-0.040;2024-01-27T11:36:21;7.60;99.90
45837;DHT22;31548;51.420;-0.040;2024-01-27T11:38:51;7.60;99.90
45837;DHT22;31548;51.420;-0.040;2024-01-27T11:41:29;7.60;99.90
45837;DHT22;31548;51.420;-0.040;2024-01-27T11:43:58;7.70;99.90
45837;DHT22;31548;51.420;-0.040;2024-01-27T11:46:29;7.70;99.90
45837;DHT22;31548;51.420;-0.040;2024-01-27T11:48:57;7.70;99.90
45837;DHT22;31548;51.420;-0.040;2024-01-27T11:51:25;7.80;99.90
45837;DHT22;31548;51.420;-0.040;2024-01-27T11:53:52;7.80;99.90
45837;DHT22;31548;51.420;-0.040;2024-01-27T11:56:20;7.80;99.90
45837;DHT22;31548;51.420;-0.040;2024-01-27T11:58:49;7.90;99.90
45837;DHT22;31548;51.420;-0.040;2024-01-27T12:01:17;7.90;99.90
45837;DHT22;31548;51.420;-0.040;2024-01-27T12:03:45;8.00;99.90
45837;DHT22;31548;51.420;-0.040;2024-01-27T12:06:13;8.00;99.90
45837;DHT22;31548;51.420;-0.040;2024-01-27T12:08:42;8.10;99.90
45837;DHT22;31548;51.420;-0.040;2024-01-27T12:11:17;8.10;99.90
45837;DHT22;31548;51.420;-0.040;2024-01-27T12:13:51;8.20;99.90
45837;DHT22;31548;51.420;-0.040;2024-01-27T12:16:23;8.20;99.90
45837;DHT22;31548;51.420;-0.040;2024-01-27T12:18:53;8.20;99.90
45837;DHT22;31548;51.420;-0.040;2024-01-27T12:21:24;8.30;99.90
45837;DHT22;31548;51.420;-0.040;2024-01-27T12:23:56;8.30;99.90
45837;DHT22;31548;51.420;-0.040;2024-01-27T12:26:29;8.30;99.90
45837;DHT22;31548;51.420;-0.040;2024-01-27T12:28:57;8.30;99.90
45837;DHT22;31548;51.420;-0.040;2024-01-27T12:31:25;8.30;99.90
45837;DHT22;31548;51.420;-0.040;2024-01-27T12:33:55;8.20;99.90
45837;DHT22;31548;51.420;-0.040;2024-01-27T12:36:24;8.20;99.90
45837;DHT22;31548;51.420;-0.040;2024-01-27T12:39:00;8.30;99.90
45837;DHT22;31548;51.420;-0.040;2024-01-27T12:41:29;8.20;99.90
45837;DHT22;31548;51.420;-0.040;2024-01-27T12:43:57;8.20;99.90
45837;DHT22;31548;51.420;-0.040;2024-01-27T12:46:25;8.20;99.90
45837;DHT22;31548;51.420;-0.040;2024-01-27T12:48:53;8.20;99.90
45837;DHT22;31548;51.420;-0.040;2024-01-27T12:51:21;8.20;99.90
45837;DHT22;31548;51.420;-0.040;2024-01-27T12:53:48;8.20;99.90
45837;DHT22;31548;51.420;-0.040;2024-01-27T12:56:16;8.20;99.90
45837;DHT22;31548;51.420;-0.040;2024-01-27T12:58:44;8.20;99.90
45837;DHT22;31548;51.420;-0.040;2024-01-27T13:01:11;8.20;99.90
45837;DHT22;31548;51.420;-0.040;2024-01-27T13:03:39;8.30;99.90
45837;DHT22;31548;51.420;-0.040;2024-01-27T13:06:12;8.30;99.90
45837;DHT22;31548;51.420;-0.040;2024-01-27T13:08:40;8.30;99.90
45837;DHT22;31548;51.420;-0.040;2024-01-27T13:11:09;8.40;99.90
45837;DHT22;31548;51.420;-0.040;2024-01-27T13:13:37;8.40;99.90
45837;DHT22;31548;51.420;-0.040;2024-01-27T13:16:05;8.40;99.90
45837;DHT22;31548;51.420;-0.040;2024-01-27T13:18:33;8.40;99.90
45837;DHT22;31548;51.420;-0.040;2024-01-27T13:21:01;8.50;99.90
45837;DHT22;31548;51.420;-0.040;2024-01-27T13:23:29;8.50;99.90
45837;DHT22;31548;51.420;-0.040;2024-01-27T13:25:56;8.50;99.90
45837;DHT22;31548;51.420;-0.040;2024-01-27T13:28:44;8.50;99.90
45837;DHT22;31548;51.420;-0.040;2024-01-27T13:31:11;8.50;99.90
45837;DHT22;31548;51.420;-0.040;2024-01-27T13:33:39;8.50;99.90
45837;DHT22;31548;51.420;-0.040;2024-01-27T13:36:07;8.50;99.90
45837;DHT22;31548;51.420;-0.040;2024-01-27T13:38:35;8.50;99.90
45837;DHT22;31548;51.420;-0.040;2024-01-27T13:41:02;8.50;99.90
45837;DHT22;31548;51.420;-0.040;2024-01-27T13:43:30;8.50;99.90
45837;DHT22;31548;51.420;-0.040;2024-01-27T13:45:58;8.60;99.90
45837;DHT22;31548;51.420;-0.040;2024-01-27T13:48:26;8.60;99.90
45837;DHT22;31548;51.420;-0.040;2024-01-27T13:50:54;8.60;99.90
45837;DHT22;31548;51.420;-0.040;2024-01-27T13:53:22;8.60;99.90
45837;DHT22;31548;51.420;-0.040;2024-01-27T13:56:04;8.70;99.90
45837;DHT22;31548;51.420;-0.040;2024-01-27T13:58:32;8.60;99.90
45837;DHT22;31548;51.420;-0.040;2024-01-27T14:01:00;8.70;99.90
45837;DHT22;31548;51.420;-0.040;2024-01-27T14:03:27;8.70;99.90
45837;DHT22;31548;51.420;-0.040;2024-01-27T14:05:55;8.70;99.90
45837;DHT22;31548;51.420;-0.040;2024-01-27T14:08:22;8.80;99.90
45837;DHT22;31548;51.420;-0.040;2024-01-27T14:10:50;8.70;99.90
45837;DHT22;31548;51.420;-0.040;2024-01-27T14:13:20;8.70;99.90
45837;DHT22;31548;51.420;-0.040;2024-01-27T14:15:48;8.70;99.90
45837;DHT22;31548;51.420;-0.040;2024-01-27T14:18:15;8.70;99.90
45837;DHT22;31548;51.420;-0.040;2024-01-27T14:20:49;8.70;99.90
45837;DHT22;31548;51.420;-0.040;2024-01-27T14:23:18;8.70;99.90
45837;DHT22;31548;51.420;-0.040;2024-01-27T14:25:46;8.70;99.90
45837;DHT22;31548;51.420;-0.040;2024-01-27T14:28:14;8.70;99.90
45837;DHT22;31548;51.420;-0.040;2024-01-27T14:30:42;8.70;99.90
45837;DHT22;31548;51.420;-0.040;2024-01-27T14:33:11;8.60;99.90
45837;DHT22;31548;51.420;-0.040;2024-01-27T14:35:40;8.60;99.90
45837;DHT22;31548;51.420;-0.040;2024-01-27T14:38:07;8.60;99.90
45837;DHT22;31548;51.420;-0.040;2024-01-27T14:40:37;8.60;99.90
45837;DHT22;31548;51.420;-0.040;2024-01-27T14:43:05;8.70;99.90
45837;DHT22;31548;51.420;-0.040;2024-01-27T14:45:37;8.70;99.90
45837;DHT22;31548;51.420;-0.040;2024-01-27T14:48:05;8.70;99.90
45837;DHT22;31548;51.420;-0.040;2024-01-27T14:50:33;8.70;99.90
45837;DHT22;31548;51.420;-0.040;2024-01-27T14:53:01;8.80;99.90
45837;DHT22;31548;51.420;-0.040;2024-01-27T14:55:33;8.70;99.90
45837;DHT22;31548;51.420;-0.040;2024-01-27T14:58:00;8.80;99.90
45837;DHT22;31548;51.420;-0.040;2024-01-27T15:00:31;8.70;99.90
45837;DHT22;31548;51.420;-0.040;2024-01-27T15:02:59;8.70;99.90
45837;DHT22;31548;51.420;-0.040;2024-01-27T15:05:28;8.70;99.90
45837;DHT22;31548;51.420;-0.040;2024-01-27T15:07:55;8.70;99.90
45837;DHT22;31548;51.420;-0.040;2024-01-27T15:10:23;8.70;99.90
45837;DHT22;31548;51.420;-0.040;2024-01-27T15:12:51;8.70;99.90
45837;DHT22;31548;51.420;-0.040;2024-01-27T15:15:18;8.70;99.90
45837;DHT22;31548;51.420;-0.040;2024-01-27T15:17:46;8.60;99.90
45837;DHT22;31548;51.420;-0.040;2024-01-27T15:20:14;8.70;99.90
45837;DHT22;31548;51.420;-0.040;2024-01-27T15:22:42;8.70;99.90
45837;DHT22;31548;51.420;-0.040;2024-01-27T15:25:11;8.60;99.90
45837;DHT22;31548;51.420;-0.040;2024-01-27T15:27:40;8.60;99.90
45837;DHT22;31548;51.420;-0.040;2024-01-27T15:30:08;8.60;99.90
45837;DHT22;31548;51.420;-0.040;2024-01-27T15:32:36;8.50;99.90
45837;DHT22;31548;51.420;-0.040;2024-01-27T15:35:05;8.50;99.90
45837;DHT22;31548;51.420;-0.040;2024-01-27T15:37:33;8.50;99.90